sensor_id;sensor_type;location;lat;lon;timestamp;P1;durP1;ratioP1;P2;durP2;ratioP2
43248;SDS011;29216;51.248;6.808;2022-09-13T00:00:43;4.80;;;3.80;;
43248;SDS011;29216;51.248;6.808;2022-09-13T00:03:10;5.53;;;3.63;;
43248;SDS011;29216;51.248;6.808;2022-09-13T00:05:37;4.65;;;3.70;;
43248;SDS011;29216;51.248;6.808;2022-09-13T00:08:04;4.47;;;3.75;;
43248;SDS011;29216;51.248;6.808;2022-09-13T00:10:30;4.50;;;3.50;;
43248;SDS011;29216;51.248;6.808;2022-09-13T00:12:58;4.57;;;3.83;;
43248;SDS011;29216;51.248;6.808;2022-09-13T00:15:24;6.28;;;3.83;;
43248;SDS011;29216;51.248;6.808;2022-09-13T00:17:50;4.47;;;3.70;;
43248;SDS011;29216;51.248;6.808;2022-09-13T00:20:15;5.53;;;3.35;;
43248;SDS011;29216;51.248;6.808;2022-09-13T00:22:41;4.20;;;3.58;;
43248;SDS011;29216;51.248;6.808;2022-09-13T00:25:07;5.28;;;3.85;;
43248;SDS011;29216;51.248;6.808;2022-09-13T00:27:33;7.22;;;3.95;;
43248;SDS011;29216;51.248;6.808;2022-09-13T00:30:00;4.05;;;3.35;;
43248;SDS011;29216;51.248;6.808;2022-09-13T00:32:26;4.45;;;3.72;;
43248;SDS011;29216;51.248;6.808;2022-09-13T00:34:52;4.90;;;3.83;;
43248;SDS011;29216;51.248;6.808;2022-09-13T00:37:18;4.35;;;3.60;;
43248;SDS011;29216;51.248;6.808;2022-09-13T00:39:43;5.15;;;3.70;;
43248;SDS011;29216;51.248;6.808;2022-09-13T00:42:12;4.35;;;3.22;;
43248;SDS011;29216;51.248;6.808;2022-09-13T00:47:13;8.05;;;3.63;;
43248;SDS011;29216;51.248;6.808;2022-09-13T00:49:41;4.90;;;3.72;;
43248;SDS011;29216;51.248;6.808;2022-09-13T00:52:11;4.95;;;3.80;;
43248;SDS011;29216;51.248;6.808;2022-09-13T00:54:48;8.27;;;3.83;;
43248;SDS011;29216;51.248;6.808;2022-09-13T00:57:23;5.25;;;3.92;;
43248;SDS011;29216;51.248;6.808;2022-09-13T00:59:52;6.90;;;3.60;;
43248;SDS011;29216;51.248;6.808;2022-09-13T01:02:38;5.43;;;3.92;;
43248;SDS011;29216;51.248;6.808;2022-09-13T01:05:07;7.82;;;3.53;;
43248;SDS011;29216;51.248;6.808;2022-09-13T01:07:33;7.13;;;4.03;;
43248;SDS011;29216;51.248;6.808;2022-09-13T01:10:01;5.45;;;4.22;;
43248;SDS011;29216;51.248;6.808;2022-09-13T01:15:19;4.82;;;3.67;;
43248;SDS011;29216;51.248;6.808;2022-09-13T01:17:44;5.15;;;3.83;;
43248;SDS011;29216;51.248;6.808;2022-09-13T01:20:10;5.40;;;4.53;;
43248;SDS011;29216;51.248;6.808;2022-09-13T01:25:28;4.75;;;3.70;;
43248;SDS011;29216;51.248;6.808;2022-09-13T01:28:18;5.40;;;3.80;;
43248;SDS011;29216;51.248;6.808;2022-09-13T01:44:29;4.88;;;4.03;;
43248;SDS011;29216;51.248;6.808;2022-09-13T01:47:08;6.18;;;4.10;;
43248;SDS011;29216;51.248;6.808;2022-09-13T01:54:58;7.97;;;4.10;;
43248;SDS011;29216;51.248;6.808;2022-09-13T01:57:40;8.27;;;4.45;;
43248;SDS011;29216;51.248;6.808;2022-09-13T02:00:30;6.75;;;4.07;;
43248;SDS011;29216;51.248;6.808;2022-09-13T02:03:05;6.20;;;4.28;;
43248;SDS011;29216;51.248;6.808;2022-09-13T02:05:58;8.18;;;4.18;;
43248;SDS011;29216;51.248;6.808;2022-09-13T02:08:39;6.10;;;4.13;;
43248;SDS011;29216;51.248;6.808;2022-09-13T02:11:16;4.88;;;3.85;;
43248;SDS011;29216;51.248;6.808;2022-09-13T02:13:50;5.07;;;3.90;;
43248;SDS011;29216;51.248;6.808;2022-09-13T02:19:13;5.20;;;3.88;;
43248;SDS011;29216;51.248;6.808;2022-09-13T02:21:46;5.32;;;3.60;;
43248;SDS011;29216;51.248;6.808;2022-09-13T02:24:18;5.22;;;3.80;;
43248;SDS011;29216;51.248;6.808;2022-09-13T02:26:49;5.22;;;3.90;;
43248;SDS011;29216;51.248;6.808;2022-09-13T02:29:18;4.78;;;3.58;;
43248;SDS011;29216;51.248;6.808;2022-09-13T02:31:55;6.63;;;4.20;;
43248;SDS011;29216;51.248;6.808;2022-09-13T02:34:27;5.85;;;3.80;;
43248;SDS011;29216;51.248;6.808;2022-09-13T02:36:59;5.57;;;4.20;;
43248;SDS011;29216;51.248;6.808;2022-09-13T02:39:28;4.82;;;3.90;;
43248;SDS011;29216;51.248;6.808;2022-09-13T02:44:45;4.40;;;3.78;;
43248;SDS011;29216;51.248;6.808;2022-09-13T02:47:37;6.22;;;3.90;;
43248;SDS011;29216;51.248;6.808;2022-09-13T02:53:16;7.43;;;3.97;;
43248;SDS011;29216;51.248;6.808;2022-09-13T03:01:08;6.43;;;3.97;;
43248;SDS011;29216;51.248;6.808;2022-09-13T03:03:35;4.97;;;4.05;;
43248;SDS011;29216;51.248;6.808;2022-09-13T03:06:01;6.03;;;3.90;;
43248;SDS011;29216;51.248;6.808;2022-09-13T03:08:26;8.45;;;4.50;;
43248;SDS011;29216;51.248;6.808;2022-09-13T03:14:16;5.28;;;3.95;;
43248;SDS011;29216;51.248;6.808;2022-09-13T03:30:09;5.97;;;4.90;;
43248;SDS011;29216;51.248;6.808;2022-09-13T03:43:12;6.22;;;4.72;;
43248;SDS011;29216;51.248;6.808;2022-09-13T03:45:43;6.35;;;4.85;;
43248;SDS011;29216;51.248;6.808;2022-09-13T03:48:14;5.95;;;4.47;;
43248;SDS011;29216;51.248;6.808;2022-09-13T03:50:41;6.30;;;4.40;;
43248;SDS011;29216;51.248;6.808;2022-09-13T03:53:11;7.47;;;4.63;;
43248;SDS011;29216;51.248;6.808;2022-09-13T03:55:40;6.47;;;4.60;;
43248;SDS011;29216;51.248;6.808;2022-09-13T03:58:14;6.30;;;4.50;;
43248;SDS011;29216;51.248;6.808;2022-09-13T04:00:42;11.52;;;4.75;;
43248;SDS011;29216;51.248;6.808;2022-09-13T04:03:09;6.07;;;4.60;;
43248;SDS011;29216;51.248;6.808;2022-09-13T04:05:35;5.07;;;4.53;;
43248;SDS011;29216;51.248;6.808;2022-09-13T04:08:01;7.43;;;4.65;;
43248;SDS011;29216;51.248;6.808;2022-09-13T04:10:29;7.25;;;5.20;;
43248;SDS011;29216;51.248;6.808;2022-09-13T04:12:56;6.55;;;5.25;;
43248;SDS011;29216;51.248;6.808;2022-09-13T04:15:23;7.60;;;4.63;;
43248;SDS011;29216;51.248;6.808;2022-09-13T04:17:49;10.27;;;5.18;;
43248;SDS011;29216;51.248;6.808;2022-09-13T04:20:15;7.25;;;4.88;;
43248;SDS011;29216;51.248;6.808;2022-09-13T04:22:40;8.23;;;4.95;;
43248;SDS011;29216;51.248;6.808;2022-09-13T04:25:06;6.32;;;4.93;;
43248;SDS011;29216;51.248;6.808;2022-09-13T04:27:32;5.88;;;4.47;;
43248;SDS011;29216;51.248;6.808;2022-09-13T04:29:59;5.43;;;4.50;;
43248;SDS011;29216;51.248;6.808;2022-09-13T04:32:26;7.53;;;4.80;;
43248;SDS011;29216;51.248;6.808;2022-09-13T04:34:52;7.90;;;5.05;;
43248;SDS011;29216;51.248;6.808;2022-09-13T04:37:18;6.95;;;4.95;;
43248;SDS011;29216;51.248;6.808;2022-09-13T04:39:44;6.28;;;4.45;;
43248;SDS011;29216;51.248;6.808;2022-09-13T04:42:10;5.30;;;4.80;;
43248;SDS011;29216;51.248;6.808;2022-09-13T04:44:36;8.10;;;5.15;;
43248;SDS011;29216;51.248;6.808;2022-09-13T04:47:02;7.20;;;5.15;;
43248;SDS011;29216;51.248;6.808;2022-09-13T04:49:27;8.25;;;5.13;;
43248;SDS011;29216;51.248;6.808;2022-09-13T04:51:53;6.38;;;5.40;;
43248;SDS011;29216;51.248;6.808;2022-09-13T04:54:19;7.43;;;5.40;;
43248;SDS011;29216;51.248;6.808;2022-09-13T04:56:46;8.32;;;5.63;;
43248;SDS011;29216;51.248;6.808;2022-09-13T04:59:11;8.15;;;5.25;;
43248;SDS011;29216;51.248;6.808;2022-09-13T05:01:39;6.72;;;5.50;;
43248;SDS011;29216;51.248;6.808;2022-09-13T05:04:05;7.63;;;5.63;;
43248;SDS011;29216;51.248;6.808;2022-09-13T05:06:32;6.28;;;5.40;;
43248;SDS011;29216;51.248;6.808;2022-09-13T05:08:58;8.57;;;5.97;;
43248;SDS011;29216;51.248;6.808;2022-09-13T05:11:24;7.38;;;5.20;;
43248;SDS011;29216;51.248;6.808;2022-09-13T05:13:51;7.90;;;5.10;;
43248;SDS011;29216;51.248;6.808;2022-09-13T05:16:23;6.38;;;5.70;;
43248;SDS011;29216;51.248;6.808;2022-09-13T05:18:51;8.77;;;5.75;;
43248;SDS011;29216;51.248;6.808;2022-09-13T05:21:17;7.25;;;5.70;;
43248;SDS011;29216;51.248;6.808;2022-09-13T05:23:44;7.03;;;5.82;;
43248;SDS011;29216;51.248;6.808;2022-09-13T05:26:12;6.95;;;5.45;;
43248;SDS011;29216;51.248;6.808;2022-09-13T05:28:38;6.60;;;5.55;;
43248;SDS011;29216;51.248;6.808;2022-09-13T05:31:05;7.15;;;5.97;;
43248;SDS011;29216;51.248;6.808;2022-09-13T05:33:33;7.38;;;5.72;;
43248;SDS011;29216;51.248;6.808;2022-09-13T05:36:00;8.02;;;5.80;;
43248;SDS011;29216;51.248;6.808;2022-09-13T05:38:27;7.35;;;5.90;;
43248;SDS011;29216;51.248;6.808;2022-09-13T05:40:56;13.13;;;6.40;;
43248;SDS011;29216;51.248;6.808;2022-09-13T05:43:24;8.57;;;6.03;;
43248;SDS011;29216;51.248;6.808;2022-09-13T05:45:50;8.57;;;5.97;;
43248;SDS011;29216;51.248;6.808;2022-09-13T05:48:16;7.38;;;5.97;;
43248;SDS011;29216;51.248;6.808;2022-09-13T05:50:42;8.55;;;6.20;;
43248;SDS011;29216;51.248;6.808;2022-09-13T05:53:07;10.95;;;5.60;;
43248;SDS011;29216;51.248;6.808;2022-09-13T05:55:33;7.30;;;5.40;;
43248;SDS011;29216;51.248;6.808;2022-09-13T05:58:02;9.73;;;5.30;;
43248;SDS011;29216;51.248;6.808;2022-09-13T06:00:28;8.10;;;5.60;;
43248;SDS011;29216;51.248;6.808;2022-09-13T06:02:54;7.78;;;5.75;;
43248;SDS011;29216;51.248;6.808;2022-09-13T06:05:20;7.88;;;5.18;;
43248;SDS011;29216;51.248;6.808;2022-09-13T06:07:45;9.00;;;5.97;;
43248;SDS011;29216;51.248;6.808;2022-09-13T06:10:11;6.68;;;5.45;;
43248;SDS011;29216;51.248;6.808;2022-09-13T06:12:37;8.27;;;5.32;;
43248;SDS011;29216;51.248;6.808;2022-09-13T06:15:02;6.90;;;5.57;;
43248;SDS011;29216;51.248;6.808;2022-09-13T06:17:28;8.52;;;5.65;;
43248;SDS011;29216;51.248;6.808;2022-09-13T06:19:54;10.35;;;7.15;;
43248;SDS011;29216;51.248;6.808;2022-09-13T06:22:21;7.25;;;4.80;;
43248;SDS011;29216;51.248;6.808;2022-09-13T06:24:46;6.47;;;5.20;;
43248;SDS011;29216;51.248;6.808;2022-09-13T06:27:12;7.45;;;5.20;;
43248;SDS011;29216;51.248;6.808;2022-09-13T06:29:38;8.10;;;5.00;;
43248;SDS011;29216;51.248;6.808;2022-09-13T06:32:03;6.38;;;5.53;;
43248;SDS011;29216;51.248;6.808;2022-09-13T06:34:29;6.43;;;5.07;;
43248;SDS011;29216;51.248;6.808;2022-09-13T06:36:55;6.35;;;5.35;;
43248;SDS011;29216;51.248;6.808;2022-09-13T06:39:21;6.40;;;5.28;;
43248;SDS011;29216;51.248;6.808;2022-09-13T06:41:46;5.90;;;4.88;;
43248;SDS011;29216;51.248;6.808;2022-09-13T06:44:12;10.48;;;5.18;;
43248;SDS011;29216;51.248;6.808;2022-09-13T06:46:38;6.70;;;5.07;;
43248;SDS011;29216;51.248;6.808;2022-09-13T06:49:04;7.70;;;5.10;;
43248;SDS011;29216;51.248;6.808;2022-09-13T06:51:31;6.55;;;5.35;;
43248;SDS011;29216;51.248;6.808;2022-09-13T06:53:58;6.47;;;5.18;;
43248;SDS011;29216;51.248;6.808;2022-09-13T06:56:26;7.85;;;5.40;;
43248;SDS011;29216;51.248;6.808;2022-09-13T06:58:57;11.48;;;5.13;;
43248;SDS011;29216;51.248;6.808;2022-09-13T07:01:28;7.30;;;5.05;;
43248;SDS011;29216;51.248;6.808;2022-09-13T07:03:59;9.52;;;5.05;;
43248;SDS011;29216;51.248;6.808;2022-09-13T07:06:27;8.15;;;4.93;;
43248;SDS011;29216;51.248;6.808;2022-09-13T07:08:55;8.20;;;5.18;;
43248;SDS011;29216;51.248;6.808;2022-09-13T07:11:22;7.05;;;5.10;;
43248;SDS011;29216;51.248;6.808;2022-09-13T07:13:51;9.88;;;5.07;;
43248;SDS011;29216;51.248;6.808;2022-09-13T07:16:18;6.13;;;5.03;;
43248;SDS011;29216;51.248;6.808;2022-09-13T07:18:59;6.57;;;4.95;;
43248;SDS011;29216;51.248;6.808;2022-09-13T07:21:27;7.15;;;5.18;;
43248;SDS011;29216;51.248;6.808;2022-09-13T07:23:54;7.22;;;4.63;;
43248;SDS011;29216;51.248;6.808;2022-09-13T07:26:20;6.95;;;5.00;;
43248;SDS011;29216;51.248;6.808;2022-09-13T07:28:48;8.38;;;5.25;;
43248;SDS011;29216;51.248;6.808;2022-09-13T07:31:20;7.70;;;4.82;;
43248;SDS011;29216;51.248;6.808;2022-09-13T07:33:47;5.55;;;4.80;;
43248;SDS011;29216;51.248;6.808;2022-09-13T07:36:20;9.30;;;5.47;;
43248;SDS011;29216;51.248;6.808;2022-09-13T07:38:46;7.90;;;5.32;;
43248;SDS011;29216;51.248;6.808;2022-09-13T07:41:16;7.28;;;5.20;;
43248;SDS011;29216;51.248;6.808;2022-09-13T07:43:43;8.88;;;5.10;;
43248;SDS011;29216;51.248;6.808;2022-09-13T07:46:10;7.43;;;4.60;;
43248;SDS011;29216;51.248;6.808;2022-09-13T07:48:41;6.20;;;4.78;;
43248;SDS011;29216;51.248;6.808;2022-09-13T07:51:08;6.13;;;4.97;;
43248;SDS011;29216;51.248;6.808;2022-09-13T07:53:37;10.57;;;5.20;;
43248;SDS011;29216;51.248;6.808;2022-09-13T07:56:08;6.57;;;4.65;;
43248;SDS011;29216;51.248;6.808;2022-09-13T07:58:38;7.65;;;4.78;;
43248;SDS011;29216;51.248;6.808;2022-09-13T08:01:06;6.05;;;4.60;;
43248;SDS011;29216;51.248;6.808;2022-09-13T08:03:38;8.30;;;5.13;;
43248;SDS011;29216;51.248;6.808;2022-09-13T08:06:04;9.77;;;4.60;;
43248;SDS011;29216;51.248;6.808;2022-09-13T08:08:31;7.47;;;5.20;;
43248;SDS011;29216;51.248;6.808;2022-09-13T08:10:58;6.40;;;4.90;;
43248;SDS011;29216;51.248;6.808;2022-09-13T08:13:25;7.72;;;4.75;;
43248;SDS011;29216;51.248;6.808;2022-09-13T08:15:51;8.68;;;4.38;;
43248;SDS011;29216;51.248;6.808;2022-09-13T08:18:17;6.18;;;4.35;;
43248;SDS011;29216;51.248;6.808;2022-09-13T08:20:43;12.35;;;5.20;;
43248;SDS011;29216;51.248;6.808;2022-09-13T08:23:09;6.13;;;4.40;;
43248;SDS011;29216;51.248;6.808;2022-09-13T08:25:36;9.07;;;5.15;;
43248;SDS011;29216;51.248;6.808;2022-09-13T08:28:09;7.10;;;4.22;;
43248;SDS011;29216;51.248;6.808;2022-09-13T08:30:40;6.35;;;4.32;;
43248;SDS011;29216;51.248;6.808;2022-09-13T08:33:07;6.93;;;4.13;;
43248;SDS011;29216;51.248;6.808;2022-09-13T08:35:34;7.20;;;4.40;;
43248;SDS011;29216;51.248;6.808;2022-09-13T08:38:00;6.00;;;4.43;;
43248;SDS011;29216;51.248;6.808;2022-09-13T08:40:27;11.15;;;4.97;;
43248;SDS011;29216;51.248;6.808;2022-09-13T08:43:05;7.60;;;4.50;;
43248;SDS011;29216;51.248;6.808;2022-09-13T08:48:49;7.25;;;4.38;;
43248;SDS011;29216;51.248;6.808;2022-09-13T08:51:26;8.13;;;4.50;;
43248;SDS011;29216;51.248;6.808;2022-09-13T08:53:57;7.22;;;4.68;;
43248;SDS011;29216;51.248;6.808;2022-09-13T08:56:40;6.32;;;4.28;;
43248;SDS011;29216;51.248;6.808;2022-09-13T09:05:46;8.38;;;4.93;;
43248;SDS011;29216;51.248;6.808;2022-09-13T09:10:24;9.90;;;4.85;;
43248;SDS011;29216;51.248;6.808;2022-09-13T09:16:06;7.32;;;4.55;;
43248;SDS011;29216;51.248;6.808;2022-09-13T09:18:39;11.45;;;4.68;;
43248;SDS011;29216;51.248;6.808;2022-09-13T09:21:13;8.57;;;5.10;;
43248;SDS011;29216;51.248;6.808;2022-09-13T09:26:21;7.38;;;4.93;;
43248;SDS011;29216;51.248;6.808;2022-09-13T09:28:53;9.65;;;5.38;;
43248;SDS011;29216;51.248;6.808;2022-09-13T09:39:49;8.18;;;5.07;;
43248;SDS011;29216;51.248;6.808;2022-09-13T09:42:19;7.10;;;5.20;;
43248;SDS011;29216;51.248;6.808;2022-09-13T09:44:50;10.32;;;5.45;;
43248;SDS011;29216;51.248;6.808;2022-09-13T09:47:22;7.25;;;5.07;;
43248;SDS011;29216;51.248;6.808;2022-09-13T09:49:53;11.55;;;5.00;;
43248;SDS011;29216;51.248;6.808;2022-09-13T09:57:55;8.13;;;4.53;;
43248;SDS011;29216;51.248;6.808;2022-09-13T10:00:22;6.32;;;4.95;;
43248;SDS011;29216;51.248;6.808;2022-09-13T10:02:51;9.88;;;4.78;;
43248;SDS011;29216;51.248;6.808;2022-09-13T10:05:19;9.20;;;5.40;;
43248;SDS011;29216;51.248;6.808;2022-09-13T10:07:55;6.90;;;4.45;;
43248;SDS011;29216;51.248;6.808;2022-09-13T10:10:36;8.15;;;4.78;;
43248;SDS011;29216;51.248;6.808;2022-09-13T10:13:06;10.43;;;4.68;;
43248;SDS011;29216;51.248;6.808;2022-09-13T10:15:37;11.77;;;5.03;;
43248;SDS011;29216;51.248;6.808;2022-09-13T10:18:19;8.73;;;4.85;;
43248;SDS011;29216;51.248;6.808;2022-09-13T10:23:42;8.13;;;5.18;;
43248;SDS011;29216;51.248;6.808;2022-09-13T10:26:13;9.23;;;4.72;;
43248;SDS011;29216;51.248;6.808;2022-09-13T10:31:46;6.97;;;4.60;;
43248;SDS011;29216;51.248;6.808;2022-09-13T10:34:30;5.88;;;3.70;;
43248;SDS011;29216;51.248;6.808;2022-09-13T10:37:00;7.75;;;4.40;;
43248;SDS011;29216;51.248;6.808;2022-09-13T10:39:30;8.18;;;4.30;;
43248;SDS011;29216;51.248;6.808;2022-09-13T10:42:04;6.60;;;4.55;;
43248;SDS011;29216;51.248;6.808;2022-09-13T10:44:38;5.40;;;4.00;;
43248;SDS011;29216;51.248;6.808;2022-09-13T10:47:19;6.78;;;4.13;;
43248;SDS011;29216;51.248;6.808;2022-09-13T10:54:51;7.38;;;3.53;;
43248;SDS011;29216;51.248;6.808;2022-09-13T10:57:31;7.30;;;3.90;;
43248;SDS011;29216;51.248;6.808;2022-09-13T11:00:01;9.07;;;4.22;;
43248;SDS011;29216;51.248;6.808;2022-09-13T11:02:36;5.85;;;3.85;;
43248;SDS011;29216;51.248;6.808;2022-09-13T11:05:36;12.20;;;4.20;;
43248;SDS011;29216;51.248;6.808;2022-09-13T11:08:13;4.88;;;3.60;;
43248;SDS011;29216;51.248;6.808;2022-09-13T11:22:15;5.88;;;3.35;;
43248;SDS011;29216;51.248;6.808;2022-09-13T11:30:22;6.60;;;3.00;;
43248;SDS011;29216;51.248;6.808;2022-09-13T11:40:59;8.15;;;4.32;;
43248;SDS011;29216;51.248;6.808;2022-09-13T11:56:58;5.18;;;3.40;;
43248;SDS011;29216;51.248;6.808;2022-09-13T12:05:10;6.05;;;3.63;;
43248;SDS011;29216;51.248;6.808;2022-09-13T12:07:54;4.40;;;3.05;;
43248;SDS011;29216;51.248;6.808;2022-09-13T12:10:37;3.10;;;2.58;;
43248;SDS011;29216;51.248;6.808;2022-09-13T12:13:21;4.63;;;2.60;;
43248;SDS011;29216;51.248;6.808;2022-09-13T12:15:53;5.70;;;3.00;;
43248;SDS011;29216;51.248;6.808;2022-09-13T12:18:30;7.07;;;2.97;;
43248;SDS011;29216;51.248;6.808;2022-09-13T12:21:04;4.50;;;3.00;;
43248;SDS011;29216;51.248;6.808;2022-09-13T12:23:37;4.63;;;2.88;;
43248;SDS011;29216;51.248;6.808;2022-09-13T12:28:43;5.22;;;3.38;;
43248;SDS011;29216;51.248;6.808;2022-09-13T12:31:16;4.60;;;2.70;;
43248;SDS011;29216;51.248;6.808;2022-09-13T12:33:45;6.90;;;3.40;;
43248;SDS011;29216;51.248;6.808;2022-09-13T12:41:40;7.07;;;4.00;;
43248;SDS011;29216;51.248;6.808;2022-09-13T12:53:03;5.25;;;3.35;;
43248;SDS011;29216;51.248;6.808;2022-09-13T13:01:02;9.50;;;4.07;;
43248;SDS011;29216;51.248;6.808;2022-09-13T13:03:54;5.25;;;3.20;;
43248;SDS011;29216;51.248;6.808;2022-09-13T13:06:26;4.07;;;3.08;;
43248;SDS011;29216;51.248;6.808;2022-09-13T13:09:01;3.88;;;3.30;;
43248;SDS011;29216;51.248;6.808;2022-09-13T13:11:39;5.50;;;3.92;;
43248;SDS011;29216;51.248;6.808;2022-09-13T13:14:10;8.85;;;3.03;;
43248;SDS011;29216;51.248;6.808;2022-09-13T13:16:52;5.72;;;2.55;;
43248;SDS011;29216;51.248;6.808;2022-09-13T13:19:29;4.93;;;2.90;;
43248;SDS011;29216;51.248;6.808;2022-09-13T13:25:22;3.22;;;2.88;;
43248;SDS011;29216;51.248;6.808;2022-09-13T13:27:55;2.63;;;2.40;;
43248;SDS011;29216;51.248;6.808;2022-09-13T13:35:37;5.28;;;3.20;;
43248;SDS011;29216;51.248;6.808;2022-09-13T13:40:47;4.07;;;2.65;;
43248;SDS011;29216;51.248;6.808;2022-09-13T13:43:30;9.25;;;2.95;;
43248;SDS011;29216;51.248;6.808;2022-09-13T13:45:56;3.65;;;2.70;;
43248;SDS011;29216;51.248;6.808;2022-09-13T13:48:42;3.88;;;2.60;;
43248;SDS011;29216;51.248;6.808;2022-09-13T13:53:46;3.97;;;2.50;;
43248;SDS011;29216;51.248;6.808;2022-09-13T13:59:14;4.22;;;2.88;;
43248;SDS011;29216;51.248;6.808;2022-09-13T14:01:44;6.55;;;2.80;;
43248;SDS011;29216;51.248;6.808;2022-09-13T14:09:56;3.85;;;2.75;;
43248;SDS011;29216;51.248;6.808;2022-09-13T14:18:12;5.45;;;2.80;;
43248;SDS011;29216;51.248;6.808;2022-09-13T14:20:55;3.92;;;2.80;;
43248;SDS011;29216;51.248;6.808;2022-09-13T14:23:24;4.07;;;2.97;;
43248;SDS011;29216;51.248;6.808;2022-09-13T14:25:55;3.60;;;2.67;;
43248;SDS011;29216;51.248;6.808;2022-09-13T14:28:22;5.50;;;2.90;;
43248;SDS011;29216;51.248;6.808;2022-09-13T14:30:53;4.03;;;2.53;;
43248;SDS011;29216;51.248;6.808;2022-09-13T14:33:41;3.60;;;2.30;;
43248;SDS011;29216;51.248;6.808;2022-09-13T14:36:07;3.28;;;2.60;;
43248;SDS011;29216;51.248;6.808;2022-09-13T14:38:48;5.05;;;2.60;;
43248;SDS011;29216;51.248;6.808;2022-09-13T14:41:35;6.03;;;2.90;;
43248;SDS011;29216;51.248;6.808;2022-09-13T14:44:15;3.60;;;2.50;;
43248;SDS011;29216;51.248;6.808;2022-09-13T14:46:51;4.35;;;2.40;;
43248;SDS011;29216;51.248;6.808;2022-09-13T14:49:28;6.88;;;3.25;;
43248;SDS011;29216;51.248;6.808;2022-09-13T14:52:02;4.03;;;2.50;;
43248;SDS011;29216;51.248;6.808;2022-09-13T14:54:40;3.67;;;2.90;;
43248;SDS011;29216;51.248;6.808;2022-09-13T14:57:13;4.28;;;2.65;;
43248;SDS011;29216;51.248;6.808;2022-09-13T14:59:48;5.50;;;2.50;;
43248;SDS011;29216;51.248;6.808;2022-09-13T15:02:20;3.70;;;2.60;;
43248;SDS011;29216;51.248;6.808;2022-09-13T15:04:49;3.60;;;2.70;;
43248;SDS011;29216;51.248;6.808;2022-09-13T15:07:36;4.07;;;3.35;;
43248;SDS011;29216;51.248;6.808;2022-09-13T15:18:21;5.32;;;2.90;;
43248;SDS011;29216;51.248;6.808;2022-09-13T15:23:35;4.60;;;2.70;;
43248;SDS011;29216;51.248;6.808;2022-09-13T15:28:29;4.28;;;3.08;;
43248;SDS011;29216;51.248;6.808;2022-09-13T15:30:58;4.82;;;2.30;;
43248;SDS011;29216;51.248;6.808;2022-09-13T15:33:29;5.40;;;3.15;;
43248;SDS011;29216;51.248;6.808;2022-09-13T15:41:34;3.67;;;2.63;;
43248;SDS011;29216;51.248;6.808;2022-09-13T15:44:14;6.75;;;2.70;;
43248;SDS011;29216;51.248;6.808;2022-09-13T15:46:45;5.05;;;3.20;;
43248;SDS011;29216;51.248;6.808;2022-09-13T15:49:16;5.03;;;3.28;;
43248;SDS011;29216;51.248;6.808;2022-09-13T15:51:44;5.17;;;3.17;;
43248;SDS011;29216;51.248;6.808;2022-09-13T15:54:11;4.07;;;2.90;;
43248;SDS011;29216;51.248;6.808;2022-09-13T15:56:40;4.57;;;2.90;;
43248;SDS011;29216;51.248;6.808;2022-09-13T15:59:08;5.00;;;3.00;;
43248;SDS011;29216;51.248;6.808;2022-09-13T16:01:37;6.47;;;3.00;;
43248;SDS011;29216;51.248;6.808;2022-09-13T16:04:03;5.43;;;3.20;;
43248;SDS011;29216;51.248;6.808;2022-09-13T16:06:30;5.20;;;2.88;;
43248;SDS011;29216;51.248;6.808;2022-09-13T16:08:55;6.07;;;3.63;;
43248;SDS011;29216;51.248;6.808;2022-09-13T16:11:22;7.32;;;3.95;;
43248;SDS011;29216;51.248;6.808;2022-09-13T16:13:47;6.50;;;3.40;;
43248;SDS011;29216;51.248;6.808;2022-09-13T16:16:13;4.72;;;3.70;;
43248;SDS011;29216;51.248;6.808;2022-09-13T16:18:39;4.38;;;3.13;;
43248;SDS011;29216;51.248;6.808;2022-09-13T16:21:04;5.43;;;3.75;;
43248;SDS011;29216;51.248;6.808;2022-09-13T16:23:30;7.53;;;3.67;;
43248;SDS011;29216;51.248;6.808;2022-09-13T16:25:56;5.30;;;3.45;;
43248;SDS011;29216;51.248;6.808;2022-09-13T16:28:24;4.05;;;3.45;;
43248;SDS011;29216;51.248;6.808;2022-09-13T16:30:50;5.57;;;4.13;;
43248;SDS011;29216;51.248;6.808;2022-09-13T16:33:16;6.43;;;4.25;;
43248;SDS011;29216;51.248;6.808;2022-09-13T16:35:43;6.45;;;4.63;;
43248;SDS011;29216;51.248;6.808;2022-09-13T16:38:10;9.43;;;5.00;;
43248;SDS011;29216;51.248;6.808;2022-09-13T16:40:39;8.95;;;5.10;;
43248;SDS011;29216;51.248;6.808;2022-09-13T16:43:06;7.28;;;4.40;;
43248;SDS011;29216;51.248;6.808;2022-09-13T16:45:33;8.35;;;4.78;;
43248;SDS011;29216;51.248;6.808;2022-09-13T16:47:58;10.25;;;6.18;;
43248;SDS011;29216;51.248;6.808;2022-09-13T16:50:24;8.63;;;6.32;;
43248;SDS011;29216;51.248;6.808;2022-09-13T16:52:50;8.38;;;5.60;;
43248;SDS011;29216;51.248;6.808;2022-09-13T16:55:15;7.35;;;5.43;;
43248;SDS011;29216;51.248;6.808;2022-09-13T16:57:41;12.13;;;5.60;;
43248;SDS011;29216;51.248;6.808;2022-09-13T17:00:09;7.97;;;5.00;;
43248;SDS011;29216;51.248;6.808;2022-09-13T17:02:36;11.93;;;7.40;;
43248;SDS011;29216;51.248;6.808;2022-09-13T17:05:02;11.05;;;6.90;;
43248;SDS011;29216;51.248;6.808;2022-09-13T17:07:29;10.45;;;7.13;;
43248;SDS011;29216;51.248;6.808;2022-09-13T17:09:56;13.18;;;7.72;;
43248;SDS011;29216;51.248;6.808;2022-09-13T17:12:21;8.48;;;6.90;;
43248;SDS011;29216;51.248;6.808;2022-09-13T17:14:47;10.10;;;6.28;;
43248;SDS011;29216;51.248;6.808;2022-09-13T17:17:14;9.40;;;5.63;;
43248;SDS011;29216;51.248;6.808;2022-09-13T17:19:41;10.75;;;6.57;;
43248;SDS011;29216;51.248;6.808;2022-09-13T17:22:10;9.73;;;6.78;;
43248;SDS011;29216;51.248;6.808;2022-09-13T17:24:36;12.48;;;6.82;;
43248;SDS011;29216;51.248;6.808;2022-09-13T17:27:02;9.75;;;5.88;;
43248;SDS011;29216;51.248;6.808;2022-09-13T17:29:30;8.50;;;5.97;;
43248;SDS011;29216;51.248;6.808;2022-09-13T17:31:57;7.10;;;6.40;;
43248;SDS011;29216;51.248;6.808;2022-09-13T17:34:24;11.80;;;5.35;;
43248;SDS011;29216;51.248;6.808;2022-09-13T17:36:50;7.88;;;6.20;;
43248;SDS011;29216;51.248;6.808;2022-09-13T17:39:16;8.57;;;5.47;;
43248;SDS011;29216;51.248;6.808;2022-09-13T17:41:42;6.93;;;5.55;;
43248;SDS011;29216;51.248;6.808;2022-09-13T17:44:08;6.72;;;5.28;;
43248;SDS011;29216;51.248;6.808;2022-09-13T17:46:36;5.60;;;4.60;;
43248;SDS011;29216;51.248;6.808;2022-09-13T17:49:03;7.18;;;5.00;;
43248;SDS011;29216;51.248;6.808;2022-09-13T17:51:29;7.88;;;4.88;;
43248;SDS011;29216;51.248;6.808;2022-09-13T17:54:03;7.40;;;5.75;;
43248;SDS011;29216;51.248;6.808;2022-09-13T17:56:37;11.00;;;5.55;;
43248;SDS011;29216;51.248;6.808;2022-09-13T17:59:09;6.70;;;5.18;;
43248;SDS011;29216;51.248;6.808;2022-09-13T18:01:38;6.60;;;5.22;;
43248;SDS011;29216;51.248;6.808;2022-09-13T18:04:12;8.73;;;4.70;;
43248;SDS011;29216;51.248;6.808;2022-09-13T18:06:38;9.15;;;5.25;;
43248;SDS011;29216;51.248;6.808;2022-09-13T18:09:07;9.95;;;5.30;;
43248;SDS011;29216;51.248;6.808;2022-09-13T18:11:34;12.23;;;9.02;;
43248;SDS011;29216;51.248;6.808;2022-09-13T18:14:00;11.40;;;7.18;;
43248;SDS011;29216;51.248;6.808;2022-09-13T18:16:29;9.05;;;6.25;;
43248;SDS011;29216;51.248;6.808;2022-09-13T18:19:00;8.90;;;6.47;;
43248;SDS011;29216;51.248;6.808;2022-09-13T18:21:29;10.95;;;7.75;;
43248;SDS011;29216;51.248;6.808;2022-09-13T18:23:59;10.80;;;6.95;;
43248;SDS011;29216;51.248;6.808;2022-09-13T18:26:26;9.80;;;7.38;;
43248;SDS011;29216;51.248;6.808;2022-09-13T18:28:54;8.57;;;6.82;;
43248;SDS011;29216;51.248;6.808;2022-09-13T18:31:22;10.55;;;6.78;;
43248;SDS011;29216;51.248;6.808;2022-09-13T18:33:52;9.55;;;6.35;;
43248;SDS011;29216;51.248;6.808;2022-09-13T18:36:26;9.88;;;7.50;;
43248;SDS011;29216;51.248;6.808;2022-09-13T18:38:52;10.38;;;6.88;;
43248;SDS011;29216;51.248;6.808;2022-09-13T18:41:20;8.52;;;6.75;;
43248;SDS011;29216;51.248;6.808;2022-09-13T18:43:48;8.98;;;6.43;;
43248;SDS011;29216;51.248;6.808;2022-09-13T18:46:16;7.57;;;6.75;;